createdAt,value
2022-10-22T00:00:36.847Z,63.73
2022-10-22T00:03:04.136Z,64.00
2022-10-22T00:05:31.049Z,63.98
2022-10-22T00:07:58.152Z,63.84
2022-10-22T00:10:25.118Z,63.91
2022-10-22T00:12:52.229Z,63.91
2022-10-22T00:15:19.116Z,63.91
2022-10-22T00:17:47.133Z,64.05
2022-10-22T00:20:14.367Z,63.93
2022-10-22T00:22:41.301Z,63.81
2022-10-22T00:25:08.787Z,63.85
2022-10-22T00:27:35.698Z,63.87
2022-10-22T00:30:02.570Z,63.83
2022-10-22T00:32:29.502Z,63.68
2022-10-22T00:34:56.463Z,63.84
2022-10-22T00:37:23.423Z,63.99
2022-10-22T00:39:50.445Z,63.65
2022-10-22T00:42:19.929Z,63.12
2022-10-22T00:45:05.357Z,62.54
2022-10-22T00:47:39.887Z,61.95
2022-10-22T00:50:09.850Z,61.23
2022-10-22T00:52:36.814Z,60.98
2022-10-22T00:55:04.704Z,60.79
2022-10-22T00:57:31.628Z,61.04
2022-10-22T00:59:58.604Z,60.96
2022-10-22T01:02:25.509Z,60.90
2022-10-22T01:04:52.646Z,60.88
2022-10-22T01:07:22.199Z,60.82
2022-10-22T01:10:17.000Z,60.85
2022-10-22T01:12:45.971Z,61.14
2022-10-22T01:15:17.053Z,61.20
2022-10-22T01:18:05.562Z,61.07
2022-10-22T01:20:35.585Z,60.76
2022-10-22T01:23:24.276Z,60.59
2022-10-22T01:25:59.263Z,60.87
2022-10-22T01:28:54.057Z,61.08
2022-10-22T01:31:20.949Z,60.97
2022-10-22T01:33:47.806Z,60.84
2022-10-22T01:36:15.290Z,60.90
2022-10-22T01:38:42.306Z,60.83
2022-10-22T01:41:09.181Z,60.58
2022-10-22T01:43:36.031Z,60.42
2022-10-22T01:46:04.615Z,60.19
2022-10-22T01:48:34.528Z,59.91
2022-10-22T01:51:08.034Z,59.78
2022-10-22T01:56:31.290Z,60.07
2022-10-22T01:58:58.294Z,60.14
2022-10-22T02:01:45.884Z,60.46
2022-10-22T02:04:44.761Z,60.19
2022-10-22T02:07:12.939Z,60.03
2022-10-22T02:09:39.941Z,60.16
2022-10-22T02:12:07.334Z,60.11
2022-10-22T02:14:34.576Z,60.56
2022-10-22T02:17:01.558Z,60.78
2022-10-22T02:19:35.903Z,60.88
2022-10-22T02:22:03.053Z,61.10
2022-10-22T02:24:29.965Z,61.00
2022-10-22T02:27:08.978Z,60.96
2022-10-22T02:29:46.416Z,60.87
2022-10-22T02:32:16.378Z,60.55
2022-10-22T02:34:43.508Z,60.57
2022-10-22T02:37:10.426Z,60.72
2022-10-22T02:39:37.288Z,60.87
2022-10-22T02:42:04.332Z,60.84
2022-10-22T02:44:31.385Z,60.99
2022-10-22T02:46:58.347Z,61.15
2022-10-22T02:49:25.462Z,61.34
2022-10-22T02:51:52.416Z,61.39
2022-10-22T02:54:19.288Z,61.54
2022-10-22T02:56:46.228Z,61.64
2022-10-22T02:59:13.141Z,61.73
2022-10-22T03:01:40.037Z,61.83
2022-10-22T03:04:07.087Z,61.83
2022-10-22T03:06:34.057Z,61.81
2022-10-22T03:09:01.036Z,61.87
2022-10-22T03:11:28.245Z,61.76
2022-10-22T03:13:55.109Z,61.67
2022-10-22T03:16:22.061Z,61.69
2022-10-22T03:18:48.987Z,61.64
2022-10-22T03:21:50.352Z,61.92
2022-10-22T03:24:22.923Z,62.09
2022-10-22T03:26:50.939Z,62.04
2022-10-22T03:29:17.909Z,62.15
2022-10-22T03:31:44.790Z,62.11
2022-10-22T03:34:13.521Z,61.92
2022-10-22T03:36:41.000Z,61.87
2022-10-22T03:39:07.982Z,61.94
2022-10-22T03:41:35.018Z,62.08
2022-10-22T03:44:02.122Z,61.94
2022-10-22T03:46:29.084Z,61.66
2022-10-22T03:48:56.368Z,61.53
2022-10-22T03:51:23.364Z,61.31
2022-10-22T03:53:50.265Z,61.25
2022-10-22T03:56:17.104Z,61.28
2022-10-22T03:58:43.999Z,61.34
2022-10-22T04:01:12.505Z,61.52
2022-10-22T04:03:39.753Z,61.47
2022-10-22T04:06:08.794Z,61.58
2022-10-22T04:08:36.118Z,61.76
2022-10-22T04:11:03.072Z,62.02
2022-10-22T04:13:30.058Z,62.24
2022-10-22T04:15:57.068Z,62.49
2022-10-22T04:18:23.955Z,62.75
2022-10-22T04:20:51.843Z,62.84
2022-10-22T04:23:18.764Z,63.00
2022-10-22T04:25:45.643Z,62.87
2022-10-22T04:28:12.532Z,63.02
2022-10-22T04:30:39.503Z,63.09
2022-10-22T04:33:06.354Z,63.27
2022-10-22T04:35:33.272Z,63.41
2022-10-22T04:38:00.689Z,63.54
2022-10-22T04:40:27.597Z,63.71
2022-10-22T04:42:54.426Z,63.92
2022-10-22T04:45:21.381Z,64.03
2022-10-22T04:47:48.277Z,64.15
2022-10-22T04:50:15.272Z,64.37
2022-10-22T04:52:42.370Z,64.48
2022-10-22T04:55:09.488Z,64.52
2022-10-22T04:57:36.369Z,64.40
2022-10-22T05:00:03.884Z,64.67
2022-10-22T05:02:30.734Z,64.71
2022-10-22T05:04:57.584Z,64.83
2022-10-22T05:07:24.505Z,65.04
2022-10-22T05:09:51.575Z,65.24
2022-10-22T05:12:18.516Z,65.26
2022-10-22T05:14:45.423Z,65.64
2022-10-22T05:17:12.536Z,65.78
2022-10-22T05:19:39.402Z,65.86
2022-10-22T05:22:06.360Z,66.09
2022-10-22T05:24:33.941Z,66.13
2022-10-22T05:27:00.812Z,66.17
2022-10-22T05:29:27.874Z,66.30
2022-10-22T05:31:54.919Z,66.52
2022-10-22T05:34:21.852Z,66.43
2022-10-22T05:36:48.784Z,66.61
2022-10-22T05:39:18.103Z,66.70
2022-10-22T05:41:45.130Z,66.77
2022-10-22T05:44:12.385Z,66.95
2022-10-22T05:46:39.329Z,66.96
2022-10-22T05:49:06.969Z,66.82
2022-10-22T05:51:34.807Z,66.67
2022-10-22T05:54:03.622Z,66.45
2022-10-22T05:56:32.098Z,66.21
2022-10-22T05:58:59.561Z,65.94
2022-10-22T06:01:28.498Z,65.61
2022-10-22T06:03:59.673Z,65.47
2022-10-22T06:06:35.697Z,65.17
2022-10-22T06:09:11.342Z,64.93
2022-10-22T06:11:38.318Z,64.73
2022-10-22T06:14:05.310Z,64.57
2022-10-22T06:16:32.411Z,64.17
2022-10-22T06:18:59.639Z,63.57
2022-10-22T06:21:26.538Z,62.82
2022-10-22T06:23:58.456Z,62.73
2022-10-22T06:26:25.424Z,62.23
2022-10-22T06:28:52.344Z,61.45
2022-10-22T06:31:19.325Z,61.23
2022-10-22T06:33:46.180Z,60.96
2022-10-22T06:36:17.543Z,60.70
2022-10-22T06:38:44.433Z,60.17
2022-10-22T06:41:13.537Z,59.62
2022-10-22T06:43:41.247Z,58.78
2022-10-22T06:46:14.829Z,57.67
2022-10-22T06:48:48.098Z,56.88
2022-10-22T06:51:15.032Z,56.16
2022-10-22T06:53:42.029Z,55.46
2022-10-22T06:56:13.923Z,54.93
2022-10-22T06:58:40.945Z,54.11
2022-10-22T07:01:09.844Z,53.33
2022-10-22T07:03:37.737Z,53.18
2022-10-22T07:06:06.521Z,53.01
2022-10-22T07:08:33.773Z,53.17
2022-10-22T07:11:11.069Z,52.86
2022-10-22T07:13:38.267Z,52.65
2022-10-22T07:16:06.357Z,52.60
2022-10-22T07:18:35.960Z,52.13
2022-10-22T07:21:03.160Z,51.28
2022-10-22T07:23:30.048Z,51.24
2022-10-22T07:28:30.063Z,50.48
2022-10-22T07:30:56.915Z,50.44
2022-10-22T07:33:23.789Z,49.72
2022-10-22T07:35:50.749Z,49.06
2022-10-22T07:38:17.641Z,48.50
2022-10-22T07:40:44.626Z,48.14
2022-10-22T07:43:11.822Z,47.63
2022-10-22T07:45:38.688Z,47.44
2022-10-22T07:48:06.015Z,47.40
2022-10-22T07:50:32.961Z,46.40
2022-10-22T07:53:00.006Z,45.82
2022-10-22T07:55:26.912Z,45.35
2022-10-22T07:57:53.862Z,45.00
2022-10-22T08:00:23.223Z,44.66
2022-10-22T08:02:52.276Z,44.43
2022-10-22T08:05:19.377Z,44.42
2022-10-22T08:07:46.468Z,44.37
2022-10-22T08:10:13.824Z,44.14
2022-10-22T08:12:40.929Z,43.56
2022-10-22T08:15:08.789Z,43.13
2022-10-22T08:17:36.071Z,42.94
2022-10-22T08:20:03.611Z,42.94
2022-10-22T08:22:30.613Z,42.76
2022-10-22T08:24:57.575Z,42.86
2022-10-22T08:27:24.515Z,43.18
2022-10-22T08:29:51.441Z,42.94
2022-10-22T08:32:18.544Z,43.60
2022-10-22T08:34:45.569Z,44.08
2022-10-22T08:37:14.481Z,43.88
2022-10-22T08:39:41.683Z,43.57
2022-10-22T08:42:36.585Z,43.21
2022-10-22T08:45:25.042Z,42.80
2022-10-22T08:48:01.624Z,42.82
2022-10-22T08:50:38.561Z,42.50
2022-10-22T08:53:08.284Z,42.30
2022-10-22T08:55:37.411Z,42.56
2022-10-22T08:58:17.630Z,42.90
2022-10-22T09:01:09.608Z,43.20
2022-10-22T09:03:57.706Z,43.49
2022-10-22T09:06:25.911Z,43.80
2022-10-22T09:08:53.386Z,44.13
2022-10-22T09:11:32.334Z,43.92
2022-10-22T09:13:59.554Z,43.79
2022-10-22T09:16:41.854Z,43.90
2022-10-22T09:19:19.768Z,44.56
2022-10-22T09:21:55.696Z,45.48
2022-10-22T09:24:44.877Z,45.06
2022-10-22T09:27:16.766Z,44.85
2022-10-22T09:29:43.934Z,45.08
2022-10-22T09:32:10.928Z,45.40
2022-10-22T09:34:38.069Z,45.52
2022-10-22T09:37:49.854Z,45.58
2022-10-22T09:40:17.197Z,45.98
2022-10-22T09:42:46.254Z,46.37
2022-10-22T09:45:21.761Z,44.80
2022-10-22T09:48:04.248Z,44.09
2022-10-22T09:51:29.682Z,43.25
2022-10-22T09:54:28.007Z,41.46
2022-10-22T09:57:22.440Z,40.42
2022-10-22T10:03:33.993Z,38.64
2022-10-22T10:06:06.036Z,37.80
2022-10-22T10:08:36.617Z,37.37
2022-10-22T10:11:08.435Z,36.40
2022-10-22T10:14:01.185Z,35.74
2022-10-22T10:16:41.244Z,35.29
2022-10-22T10:19:31.020Z,35.47
2022-10-22T10:22:16.393Z,35.33
2022-10-22T10:25:09.399Z,35.48
2022-10-22T10:28:18.072Z,36.22
2022-10-22T10:30:56.999Z,36.06
2022-10-22T10:33:34.491Z,36.12
2022-10-22T10:36:04.813Z,35.98
2022-10-22T10:38:32.078Z,35.83
2022-10-22T10:41:16.111Z,35.55
2022-10-22T10:43:49.409Z,35.41
2022-10-22T10:46:25.875Z,35.70
2022-10-22T10:48:57.095Z,35.97
2022-10-22T10:51:46.702Z,36.38
2022-10-22T10:54:48.899Z,36.55
2022-10-22T10:57:32.193Z,36.40
2022-10-22T11:00:07.783Z,36.80
2022-10-22T11:03:06.019Z,36.65
2022-10-22T11:05:42.797Z,35.97
2022-10-22T11:08:20.409Z,35.62
2022-10-22T11:11:09.223Z,35.61
2022-10-22T11:13:41.459Z,35.55
2022-10-22T11:16:30.688Z,35.62
2022-10-22T11:19:04.531Z,36.28
2022-10-22T11:21:36.655Z,36.98
2022-10-22T11:24:23.571Z,37.99
2022-10-22T11:26:53.896Z,38.14
2022-10-22T11:29:25.628Z,37.51
2022-10-22T11:31:55.053Z,36.70
2022-10-22T11:34:37.588Z,36.81
2022-10-22T11:37:04.611Z,35.92
2022-10-22T11:39:39.440Z,35.15
2022-10-22T11:42:10.156Z,35.16
2022-10-22T11:44:59.043Z,35.19
2022-10-22T11:47:27.819Z,35.11
2022-10-22T11:50:37.587Z,35.42
2022-10-22T11:53:07.942Z,35.53
2022-10-22T11:55:51.670Z,35.61
2022-10-22T11:58:39.772Z,36.19
2022-10-22T12:01:10.131Z,36.90
2022-10-22T12:04:00.082Z,36.62
2022-10-22T12:06:27.847Z,36.27
2022-10-22T12:08:55.073Z,35.74
2022-10-22T12:11:23.929Z,35.59
2022-10-22T12:14:02.408Z,35.67
2022-10-22T12:16:50.948Z,36.18
2022-10-22T12:19:22.715Z,36.22
2022-10-22T12:21:58.773Z,36.16
2022-10-22T12:24:26.328Z,36.49
2022-10-22T12:26:53.377Z,36.92
2022-10-22T12:29:23.770Z,37.10
2022-10-22T12:31:50.853Z,37.19
2022-10-22T12:34:19.640Z,37.37
2022-10-22T12:36:47.709Z,37.92
2022-10-22T12:39:16.967Z,37.69
2022-10-22T12:41:44.259Z,38.11
2022-10-22T12:44:16.428Z,38.65
2022-10-22T12:46:44.843Z,38.63
2022-10-22T12:49:20.555Z,38.65
2022-10-22T12:51:48.115Z,39.22
2022-10-22T12:54:28.537Z,39.60
2022-10-22T12:56:56.137Z,40.01
2022-10-22T12:59:37.223Z,40.41
2022-10-22T13:02:27.163Z,41.58
2022-10-22T13:05:12.748Z,41.81
2022-10-22T13:07:41.506Z,41.92
2022-10-22T13:10:19.058Z,41.86
2022-10-22T13:12:50.322Z,42.63
2022-10-22T13:15:34.965Z,42.65
2022-10-22T13:18:22.599Z,42.61
2022-10-22T13:21:03.395Z,43.57
2022-10-22T13:23:32.156Z,43.41
2022-10-22T13:26:15.191Z,43.76
2022-10-22T13:28:42.293Z,42.99
2022-10-22T13:31:17.354Z,42.51
2022-10-22T13:33:46.068Z,42.53
2022-10-22T13:36:16.262Z,42.43
2022-10-22T13:38:43.522Z,42.16
2022-10-22T13:41:25.124Z,41.99
2022-10-22T13:43:52.457Z,42.40
2022-10-22T13:46:19.537Z,41.94
2022-10-22T13:48:47.275Z,41.61
2022-10-22T13:51:16.367Z,42.07
2022-10-22T13:53:44.001Z,41.88
2022-10-22T13:56:18.906Z,42.03
2022-10-22T13:58:46.622Z,41.81
2022-10-22T14:01:20.662Z,42.11
2022-10-22T14:03:49.111Z,42.06
2022-10-22T14:06:17.285Z,41.47
2022-10-22T14:08:45.932Z,41.51
2022-10-22T14:11:13.126Z,41.58
2022-10-22T14:13:40.279Z,41.55
2022-10-22T14:16:08.033Z,41.51
2022-10-22T14:18:35.080Z,41.86
2022-10-22T14:21:07.776Z,41.84
2022-10-22T14:23:36.405Z,42.30
2022-10-22T14:26:03.701Z,42.34
2022-10-22T14:28:34.122Z,42.26
2022-10-22T14:31:10.909Z,42.45
2022-10-22T14:33:37.948Z,43.70
2022-10-22T14:36:05.364Z,44.51
2022-10-22T14:38:32.553Z,44.99
2022-10-22T14:40:59.910Z,45.18
2022-10-22T14:43:28.390Z,45.48
2022-10-22T14:45:55.538Z,45.30
2022-10-22T14:48:22.509Z,45.77
2022-10-22T14:50:49.531Z,46.50
2022-10-22T14:53:17.112Z,46.82
2022-10-22T14:55:44.854Z,46.52
2022-10-22T14:58:12.642Z,47.38
2022-10-22T15:00:43.132Z,48.32
2022-10-22T15:03:10.918Z,48.83
2022-10-22T15:05:44.592Z,49.16
2022-10-22T15:08:12.479Z,49.34
2022-10-22T15:10:40.360Z,49.56
2022-10-22T15:13:07.564Z,50.10
2022-10-22T15:15:39.679Z,50.38
2022-10-22T15:18:07.530Z,50.47
2022-10-22T15:20:34.573Z,50.55
2022-10-22T15:23:01.621Z,50.80
2022-10-22T15:25:28.975Z,50.83
2022-10-22T15:28:00.780Z,51.21
2022-10-22T15:30:34.744Z,51.56
2022-10-22T15:33:02.201Z,51.77
2022-10-22T15:35:29.162Z,51.97
2022-10-22T15:37:56.192Z,52.37
2022-10-22T15:40:23.158Z,52.56
2022-10-22T15:42:50.393Z,52.81
2022-10-22T15:45:17.488Z,53.31
2022-10-22T15:47:48.362Z,53.26
2022-10-22T15:50:15.728Z,53.83
2022-10-22T15:52:42.775Z,53.61
2022-10-22T15:55:10.821Z,54.29
2022-10-22T15:57:39.022Z,54.61
2022-10-22T16:00:07.645Z,54.72
2022-10-22T16:02:39.370Z,54.90
2022-10-22T16:05:07.222Z,55.07
2022-10-22T16:07:34.276Z,55.14
2022-10-22T16:10:01.980Z,55.37
2022-10-22T16:12:28.996Z,55.60
2022-10-22T16:14:56.043Z,55.91
2022-10-22T16:17:23.599Z,55.99
2022-10-22T16:19:50.876Z,56.42
2022-10-22T16:22:17.894Z,56.44
2022-10-22T16:24:45.144Z,55.67
2022-10-22T16:27:12.192Z,55.92
2022-10-22T16:29:39.919Z,56.54
2022-10-22T16:32:07.715Z,56.55
2022-10-22T16:34:34.763Z,56.65
2022-10-22T16:37:02.732Z,57.13
2022-10-22T16:39:29.716Z,57.12
2022-10-22T16:41:56.728Z,57.46
2022-10-22T16:44:23.959Z,57.46
2022-10-22T16:46:51.023Z,57.37
2022-10-22T16:49:18.071Z,57.64
2022-10-22T16:51:45.118Z,58.01
2022-10-22T16:54:12.667Z,58.32
2022-10-22T16:56:39.983Z,58.72
2022-10-22T16:59:07.000Z,58.79
2022-10-22T17:01:37.878Z,59.09
2022-10-22T17:04:07.640Z,59.40
2022-10-22T17:06:34.702Z,59.58
2022-10-22T17:09:01.778Z,59.99
2022-10-22T17:11:35.199Z,60.33
2022-10-22T17:14:06.262Z,60.91
2022-10-22T17:16:33.303Z,60.81
2022-10-22T17:19:00.567Z,60.97
2022-10-22T17:21:27.679Z,61.18
2022-10-22T17:23:56.804Z,61.87
2022-10-22T17:26:24.155Z,62.18
2022-10-22T17:28:51.201Z,62.41
2022-10-22T17:31:23.172Z,62.77
2022-10-22T17:33:51.340Z,62.87
2022-10-22T17:36:18.795Z,63.17
2022-10-22T17:38:48.367Z,63.41
2022-10-22T17:41:20.125Z,63.86
2022-10-22T17:43:55.524Z,64.16
2022-10-22T17:46:24.759Z,64.55
2022-10-22T17:48:55.942Z,64.97
2022-10-22T17:51:23.311Z,65.27
2022-10-22T17:53:50.811Z,65.52
2022-10-22T17:56:20.272Z,65.84
2022-10-22T17:58:47.310Z,66.15
2022-10-22T18:01:25.622Z,66.59
2022-10-22T18:03:53.601Z,66.96
2022-10-22T18:06:20.727Z,67.24
2022-10-22T18:08:47.804Z,67.46
2022-10-22T18:11:17.524Z,67.71
2022-10-22T18:13:44.672Z,67.93
2022-10-22T18:16:11.734Z,68.08
2022-10-22T18:18:38.705Z,68.22
2022-10-22T18:21:05.829Z,68.57
2022-10-22T18:23:33.513Z,68.76
2022-10-22T18:26:00.976Z,68.89
2022-10-22T18:28:27.926Z,68.94
2022-10-22T18:30:54.892Z,69.10
2022-10-22T18:33:24.149Z,69.28
2022-10-22T18:35:52.711Z,69.38
2022-10-22T18:38:23.094Z,69.60
2022-10-22T18:40:50.225Z,69.68
2022-10-22T18:43:18.392Z,69.73
2022-10-22T18:45:46.329Z,69.92
2022-10-22T18:48:13.791Z,70.13
2022-10-22T18:50:40.744Z,70.26
2022-10-22T18:53:07.755Z,70.45
2022-10-22T18:55:35.315Z,70.58
2022-10-22T18:58:02.225Z,70.53
2022-10-22T19:00:29.771Z,70.57
2022-10-22T19:02:56.715Z,70.59
2022-10-22T19:05:23.593Z,70.76
2022-10-22T19:07:50.584Z,70.86
2022-10-22T19:10:17.794Z,70.89
2022-10-22T19:12:44.635Z,70.76
2022-10-22T19:15:11.850Z,70.90
2022-10-22T19:17:39.051Z,71.02
2022-10-22T19:20:06.648Z,71.22
2022-10-22T19:22:33.562Z,71.37
2022-10-22T19:25:00.506Z,71.37
2022-10-22T19:27:31.796Z,71.42
2022-10-22T19:29:58.868Z,71.47
2022-10-22T19:32:28.813Z,71.56
2022-10-22T19:34:57.785Z,71.74
2022-10-22T19:37:24.731Z,71.83
2022-10-22T19:39:51.615Z,71.84
2022-10-22T19:42:18.564Z,71.83
2022-10-22T19:44:45.510Z,71.71
2022-10-22T19:47:12.449Z,71.79
2022-10-22T19:49:39.350Z,71.96
2022-10-22T19:52:06.349Z,72.08
2022-10-22T19:54:33.424Z,72.10
2022-10-22T19:57:00.408Z,72.02
2022-10-22T20:02:06.602Z,72.10
2022-10-22T20:04:45.620Z,72.21
2022-10-22T20:07:15.001Z,72.39
2022-10-22T20:09:42.690Z,72.35
2022-10-22T20:12:19.202Z,72.59
2022-10-22T20:14:46.680Z,72.71
2022-10-22T20:17:13.625Z,72.79
2022-10-22T20:19:40.627Z,72.98
2022-10-22T20:22:07.818Z,73.18
2022-10-22T20:24:34.761Z,73.22
2022-10-22T20:27:01.823Z,73.33
2022-10-22T20:29:28.851Z,73.52
2022-10-22T20:31:55.902Z,73.71
2022-10-22T20:34:22.806Z,73.86
2022-10-22T20:36:49.906Z,73.90
2022-10-22T20:39:17.039Z,73.97
2022-10-22T20:41:44.193Z,74.01
2022-10-22T20:44:13.391Z,74.17
2022-10-22T20:46:40.434Z,74.36
2022-10-22T20:49:13.300Z,74.39
2022-10-22T20:51:40.467Z,74.54
2022-10-22T20:54:07.738Z,74.38
2022-10-22T20:56:35.996Z,74.40
2022-10-22T20:59:08.168Z,74.44
2022-10-22T21:01:38.281Z,74.62
2022-10-22T21:04:05.534Z,74.84
2022-10-22T21:06:32.786Z,74.97
2022-10-22T21:08:59.937Z,75.04
2022-10-22T21:11:27.087Z,74.88
2022-10-22T21:13:54.134Z,74.95
2022-10-22T21:16:21.384Z,74.99
2022-10-22T21:18:48.637Z,75.03
2022-10-22T21:21:17.734Z,75.27
2022-10-22T21:23:44.983Z,75.26
2022-10-22T21:26:12.137Z,75.27
2022-10-22T21:28:39.310Z,75.32
2022-10-22T21:31:08.683Z,75.54
2022-10-22T21:33:39.318Z,75.66
2022-10-22T21:36:07.090Z,75.68
2022-10-22T21:38:34.432Z,75.57
2022-10-22T21:41:05.576Z,75.55
2022-10-22T21:43:32.554Z,75.57
2022-10-22T21:46:07.964Z,75.60
2022-10-22T21:48:36.754Z,75.65
2022-10-22T21:51:08.123Z,75.80
2022-10-22T21:55:14.405Z,75.72
2022-10-22T21:57:41.846Z,75.71
2022-10-22T22:00:10.107Z,75.80
2022-10-22T22:02:46.165Z,75.88
2022-10-22T22:05:13.116Z,75.75
2022-10-22T22:07:40.771Z,75.76
2022-10-22T22:10:08.535Z,75.63
2022-10-22T22:12:35.480Z,75.66
2022-10-22T22:15:02.540Z,75.76
2022-10-22T22:17:29.502Z,75.86
2022-10-22T22:19:56.930Z,75.82
2022-10-22T22:22:24.430Z,75.63
2022-10-22T22:24:51.432Z,75.71
2022-10-22T22:29:45.608Z,75.93
2022-10-22T22:32:16.070Z,75.97
2022-10-22T22:34:43.206Z,75.96
2022-10-22T22:37:10.254Z,75.87
2022-10-22T22:39:37.302Z,75.83
2022-10-22T22:42:04.655Z,75.91
2022-10-22T22:44:31.707Z,76.16
2022-10-22T22:46:59.161Z,76.30
2022-10-22T22:49:26.209Z,76.20
2022-10-22T22:51:53.253Z,76.06
2022-10-22T22:54:20.220Z,76.08
2022-10-22T22:56:49.704Z,76.16
2022-10-22T22:59:16.853Z,76.31
2022-10-22T23:01:45.570Z,76.37
2022-10-22T23:04:16.577Z,76.28
2022-10-22T23:06:43.543Z,76.19
2022-10-22T23:09:14.730Z,76.21
2022-10-22T23:11:42.224Z,76.08
2022-10-22T23:14:11.225Z,76.14
2022-10-22T23:16:40.826Z,76.18
2022-10-22T23:19:08.078Z,76.10
2022-10-22T23:21:37.862Z,75.94
2022-10-22T23:24:07.468Z,75.75
2022-10-22T23:26:36.702Z,75.69
2022-10-22T23:29:05.293Z,75.66
2022-10-22T23:31:32.334Z,75.82
2022-10-22T23:33:59.374Z,75.62
2022-10-22T23:36:26.529Z,75.46
2022-10-22T23:38:54.797Z,75.40
2022-10-22T23:41:22.186Z,75.58
2022-10-22T23:43:50.335Z,75.49
2022-10-22T23:46:17.473Z,75.68
2022-10-22T23:48:49.243Z,75.53
2022-10-22T23:51:17.001Z,75.46
2022-10-22T23:53:44.991Z,75.36
2022-10-22T23:56:16.102Z,75.58
2022-10-22T23:58:43.412Z,75.65
